sensor_id;sensor_type;location;lat;lon;timestamp;P1;durP1;ratioP1;P2;durP2;ratioP2
49502;SDS011;35409;48.776;9.204;2023-02-19T00:01:11;6.53;;;5.38;;
49502;SDS011;35409;48.776;9.204;2023-02-19T00:03:41;7.38;;;5.13;;
49502;SDS011;35409;48.776;9.204;2023-02-19T00:06:09;6.18;;;5.57;;
49502;SDS011;35409;48.776;9.204;2023-02-19T00:08:36;7.05;;;5.13;;
49502;SDS011;35409;48.776;9.204;2023-02-19T00:11:07;6.72;;;5.88;;
49502;SDS011;35409;48.776;9.204;2023-02-19T00:13:36;6.72;;;5.78;;
49502;SDS011;35409;48.776;9.204;2023-02-19T00:19:02;7.82;;;6.43;;
49502;SDS011;35409;48.776;9.204;2023-02-19T00:21:30;6.97;;;5.78;;
49502;SDS011;35409;48.776;9.204;2023-02-19T00:23:57;7.82;;;6.10;;
49502;SDS011;35409;48.776;9.204;2023-02-19T00:26:24;6.63;;;5.93;;
49502;SDS011;35409;48.776;9.204;2023-02-19T00:28:50;6.93;;;6.22;;
49502;SDS011;35409;48.776;9.204;2023-02-19T00:31:18;5.32;;;3.92;;
49502;SDS011;35409;48.776;9.204;2023-02-19T00:33:47;5.45;;;3.40;;
49502;SDS011;35409;48.776;9.204;2023-02-19T00:36:15;6.32;;;5.55;;
49502;SDS011;35409;48.776;9.204;2023-02-19T00:38:41;6.88;;;5.65;;
49502;SDS011;35409;48.776;9.204;2023-02-19T00:41:07;6.90;;;5.22;;
49502;SDS011;35409;48.776;9.204;2023-02-19T00:43:46;3.90;;;2.70;;
49502;SDS011;35409;48.776;9.204;2023-02-19T00:46:12;4.57;;;1.83;;
49502;SDS011;35409;48.776;9.204;2023-02-19T00:48:38;2.70;;;1.70;;
49502;SDS011;35409;48.776;9.204;2023-02-19T00:51:03;4.40;;;1.80;;
49502;SDS011;35409;48.776;9.204;2023-02-19T00:53:29;1.95;;;1.33;;
49502;SDS011;35409;48.776;9.204;2023-02-19T00:55:55;1.67;;;1.52;;
49502;SDS011;35409;48.776;9.204;2023-02-19T00:58:20;1.40;;;1.30;;
49502;SDS011;35409;48.776;9.204;2023-02-19T01:00:46;2.42;;;1.80;;
49502;SDS011;35409;48.776;9.204;2023-02-19T01:03:12;1.30;;;1.17;;
49502;SDS011;35409;48.776;9.204;2023-02-19T01:05:37;1.50;;;1.40;;
49502;SDS011;35409;48.776;9.204;2023-02-19T01:08:03;1.85;;;1.20;;
49502;SDS011;35409;48.776;9.204;2023-02-19T01:10:28;4.28;;;1.40;;
49502;SDS011;35409;48.776;9.204;2023-02-19T01:12:54;2.15;;;1.10;;
49502;SDS011;35409;48.776;9.204;2023-02-19T01:15:19;1.38;;;1.23;;
49502;SDS011;35409;48.776;9.204;2023-02-19T01:17:45;1.33;;;1.23;;
49502;SDS011;35409;48.776;9.204;2023-02-19T01:20:10;3.10;;;1.40;;
49502;SDS011;35409;48.776;9.204;2023-02-19T01:22:36;1.45;;;1.20;;
49502;SDS011;35409;48.776;9.204;2023-02-19T01:25:02;1.95;;;1.20;;
49502;SDS011;35409;48.776;9.204;2023-02-19T01:27:27;1.80;;;1.23;;
49502;SDS011;35409;48.776;9.204;2023-02-19T01:29:53;2.45;;;1.20;;
49502;SDS011;35409;48.776;9.204;2023-02-19T01:32:18;2.60;;;1.08;;
49502;SDS011;35409;48.776;9.204;2023-02-19T01:34:44;1.15;;;1.05;;
49502;SDS011;35409;48.776;9.204;2023-02-19T01:37:10;3.95;;;1.80;;
49502;SDS011;35409;48.776;9.204;2023-02-19T01:39:36;1.92;;;1.52;;
49502;SDS011;35409;48.776;9.204;2023-02-19T01:42:03;1.65;;;1.20;;
49502;SDS011;35409;48.776;9.204;2023-02-19T01:46:55;1.73;;;1.30;;
49502;SDS011;35409;48.776;9.204;2023-02-19T01:51:54;1.30;;;1.20;;
49502;SDS011;35409;48.776;9.204;2023-02-19T01:54:34;1.85;;;1.10;;
49502;SDS011;35409;48.776;9.204;2023-02-19T01:57:04;1.23;;;0.98;;
49502;SDS011;35409;48.776;9.204;2023-02-19T01:59:33;1.50;;;1.15;;
49502;SDS011;35409;48.776;9.204;2023-02-19T02:01:59;1.55;;;1.15;;
49502;SDS011;35409;48.776;9.204;2023-02-19T02:04:24;1.23;;;1.13;;
49502;SDS011;35409;48.776;9.204;2023-02-19T02:06:52;0.82;;;0.82;;
49502;SDS011;35409;48.776;9.204;2023-02-19T02:09:20;2.35;;;1.00;;
49502;SDS011;35409;48.776;9.204;2023-02-19T02:12:08;1.83;;;1.00;;
49502;SDS011;35409;48.776;9.204;2023-02-19T02:14:35;1.27;;;1.15;;
49502;SDS011;35409;48.776;9.204;2023-02-19T02:28:46;2.30;;;1.38;;
49502;SDS011;35409;48.776;9.204;2023-02-19T02:31:43;1.88;;;1.25;;
49502;SDS011;35409;48.776;9.204;2023-02-19T02:34:44;2.63;;;1.85;;
49502;SDS011;35409;48.776;9.204;2023-02-19T02:37:24;2.17;;;1.42;;
49502;SDS011;35409;48.776;9.204;2023-02-19T02:39:52;2.42;;;1.67;;
49502;SDS011;35409;48.776;9.204;2023-02-19T02:42:20;1.65;;;1.08;;
49502;SDS011;35409;48.776;9.204;2023-02-19T02:44:52;1.60;;;1.50;;
49502;SDS011;35409;48.776;9.204;2023-02-19T02:47:47;2.22;;;1.48;;
49502;SDS011;35409;48.776;9.204;2023-02-19T02:50:18;2.40;;;1.38;;
49502;SDS011;35409;48.776;9.204;2023-02-19T02:52:49;2.10;;;1.50;;
49502;SDS011;35409;48.776;9.204;2023-02-19T02:55:38;1.38;;;1.15;;
49502;SDS011;35409;48.776;9.204;2023-02-19T02:58:07;1.40;;;1.17;;
49502;SDS011;35409;48.776;9.204;2023-02-19T03:00:33;2.67;;;1.35;;
49502;SDS011;35409;48.776;9.204;2023-02-19T03:03:21;1.88;;;1.35;;
49502;SDS011;35409;48.776;9.204;2023-02-19T03:05:48;1.73;;;1.10;;
49502;SDS011;35409;48.776;9.204;2023-02-19T03:09:04;3.50;;;1.80;;
49502;SDS011;35409;48.776;9.204;2023-02-19T03:11:07;3.92;;;1.35;;
49502;SDS011;35409;48.776;9.204;2023-02-19T03:14:08;1.35;;;1.00;;
49502;SDS011;35409;48.776;9.204;2023-02-19T03:16:59;2.22;;;1.20;;
49502;SDS011;35409;48.776;9.204;2023-02-19T03:19:49;1.42;;;1.20;;
49502;SDS011;35409;48.776;9.204;2023-02-19T03:22:18;1.10;;;1.10;;
49502;SDS011;35409;48.776;9.204;2023-02-19T03:24:51;2.75;;;1.42;;
49502;SDS011;35409;48.776;9.204;2023-02-19T03:27:40;1.25;;;1.15;;
49502;SDS011;35409;48.776;9.204;2023-02-19T03:30:11;1.60;;;1.10;;
49502;SDS011;35409;48.776;9.204;2023-02-19T03:32:57;1.60;;;1.30;;
49502;SDS011;35409;48.776;9.204;2023-02-19T03:35:32;1.58;;;1.40;;
49502;SDS011;35409;48.776;9.204;2023-02-19T03:43:20;3.97;;;1.50;;
49502;SDS011;35409;48.776;9.204;2023-02-19T03:48:29;1.45;;;1.20;;
49502;SDS011;35409;48.776;9.204;2023-02-19T03:53:57;1.50;;;1.25;;
49502;SDS011;35409;48.776;9.204;2023-02-19T03:56:34;1.48;;;1.38;;
49502;SDS011;35409;48.776;9.204;2023-02-19T03:59:10;1.40;;;1.30;;
49502;SDS011;35409;48.776;9.204;2023-02-19T04:01:42;1.40;;;1.30;;
49502;SDS011;35409;48.776;9.204;2023-02-19T04:04:15;1.35;;;1.25;;
49502;SDS011;35409;48.776;9.204;2023-02-19T04:06:45;2.33;;;1.40;;
49502;SDS011;35409;48.776;9.204;2023-02-19T04:09:18;1.80;;;1.20;;
49502;SDS011;35409;48.776;9.204;2023-02-19T04:11:45;1.38;;;1.10;;
49502;SDS011;35409;48.776;9.204;2023-02-19T04:16:48;2.97;;;1.20;;
49502;SDS011;35409;48.776;9.204;2023-02-19T04:19:20;1.85;;;1.27;;
49502;SDS011;35409;48.776;9.204;2023-02-19T04:21:49;1.30;;;1.20;;
49502;SDS011;35409;48.776;9.204;2023-02-19T04:24:59;1.38;;;1.27;;
49502;SDS011;35409;48.776;9.204;2023-02-19T04:27:08;1.65;;;1.35;;
49502;SDS011;35409;48.776;9.204;2023-02-19T04:29:35;0.90;;;0.90;;
49502;SDS011;35409;48.776;9.204;2023-02-19T04:32:00;1.75;;;0.90;;
49502;SDS011;35409;48.776;9.204;2023-02-19T04:34:26;1.95;;;0.95;;
49502;SDS011;35409;48.776;9.204;2023-02-19T04:36:52;0.60;;;0.60;;
49502;SDS011;35409;48.776;9.204;2023-02-19T04:39:17;0.90;;;0.90;;
49502;SDS011;35409;48.776;9.204;2023-02-19T04:41:43;0.85;;;0.80;;
49502;SDS011;35409;48.776;9.204;2023-02-19T04:44:09;0.70;;;0.60;;
49502;SDS011;35409;48.776;9.204;2023-02-19T04:46:34;1.58;;;0.70;;
49502;SDS011;35409;48.776;9.204;2023-02-19T04:49:00;0.60;;;0.40;;
49502;SDS011;35409;48.776;9.204;2023-02-19T04:51:25;0.45;;;0.40;;
49502;SDS011;35409;48.776;9.204;2023-02-19T04:53:51;0.60;;;0.60;;
49502;SDS011;35409;48.776;9.204;2023-02-19T04:56:17;0.73;;;0.55;;
49502;SDS011;35409;48.776;9.204;2023-02-19T04:58:43;0.95;;;0.40;;
49502;SDS011;35409;48.776;9.204;2023-02-19T05:01:09;0.93;;;0.50;;
49502;SDS011;35409;48.776;9.204;2023-02-19T05:12:11;0.98;;;0.25;;
49502;SDS011;35409;48.776;9.204;2023-02-19T05:14:37;0.38;;;0.20;;
49502;SDS011;35409;48.776;9.204;2023-02-19T05:17:03;0.63;;;0.30;;
49502;SDS011;35409;48.776;9.204;2023-02-19T05:19:28;0.20;;;0.20;;
49502;SDS011;35409;48.776;9.204;2023-02-19T05:21:54;0.70;;;0.25;;
49502;SDS011;35409;48.776;9.204;2023-02-19T05:24:19;0.20;;;0.20;;
49502;SDS011;35409;48.776;9.204;2023-02-19T05:26:45;0.10;;;0.10;;
49502;SDS011;35409;48.776;9.204;2023-02-19T05:29:12;0.77;;;0.10;;
49502;SDS011;35409;48.776;9.204;2023-02-19T05:31:37;0.13;;;0.10;;
49502;SDS011;35409;48.776;9.204;2023-02-19T05:34:03;0.73;;;0.10;;
49502;SDS011;35409;48.776;9.204;2023-02-19T05:36:29;2.30;;;0.32;;
49502;SDS011;35409;48.776;9.204;2023-02-19T05:38:55;0.15;;;0.10;;
49502;SDS011;35409;48.776;9.204;2023-02-19T05:41:24;0.25;;;0.10;;
49502;SDS011;35409;48.776;9.204;2023-02-19T05:43:51;0.28;;;0.10;;
49502;SDS011;35409;48.776;9.204;2023-02-19T05:46:19;0.13;;;0.13;;
49502;SDS011;35409;48.776;9.204;2023-02-19T05:48:47;0.35;;;0.10;;
49502;SDS011;35409;48.776;9.204;2023-02-19T05:51:15;0.10;;;0.10;;
49502;SDS011;35409;48.776;9.204;2023-02-19T05:53:42;1.08;;;0.10;;
49502;SDS011;35409;48.776;9.204;2023-02-19T05:59:05;0.08;;;0.08;;
49502;SDS011;35409;48.776;9.204;2023-02-19T06:01:44;1.35;;;0.10;;
49502;SDS011;35409;48.776;9.204;2023-02-19T06:04:10;0.10;;;0.10;;
49502;SDS011;35409;48.776;9.204;2023-02-19T06:06:36;0.52;;;0.10;;
49502;SDS011;35409;48.776;9.204;2023-02-19T06:09:03;0.00;;;0.00;;
49502;SDS011;35409;48.776;9.204;2023-02-19T06:11:29;0.10;;;0.00;;
49502;SDS011;35409;48.776;9.204;2023-02-19T06:13:55;0.32;;;0.00;;
49502;SDS011;35409;48.776;9.204;2023-02-19T06:16:20;0.28;;;0.10;;
49502;SDS011;35409;48.776;9.204;2023-02-19T06:18:47;0.00;;;0.00;;
49502;SDS011;35409;48.776;9.204;2023-02-19T06:21:12;0.10;;;0.05;;
49502;SDS011;35409;48.776;9.204;2023-02-19T06:23:39;0.00;;;0.00;;
49502;SDS011;35409;48.776;9.204;2023-02-19T06:26:13;0.63;;;0.00;;
49502;SDS011;35409;48.776;9.204;2023-02-19T06:28:44;0.05;;;0.05;;
49502;SDS011;35409;48.776;9.204;2023-02-19T06:31:11;0.10;;;0.10;;
49502;SDS011;35409;48.776;9.204;2023-02-19T06:33:37;0.65;;;0.17;;
49502;SDS011;35409;48.776;9.204;2023-02-19T06:36:04;0.05;;;0.05;;
49502;SDS011;35409;48.776;9.204;2023-02-19T06:38:31;0.10;;;0.10;;
49502;SDS011;35409;48.776;9.204;2023-02-19T06:41:01;0.10;;;0.10;;
49502;SDS011;35409;48.776;9.204;2023-02-19T06:43:28;0.35;;;0.20;;
49502;SDS011;35409;48.776;9.204;2023-02-19T06:45:58;0.47;;;0.20;;
49502;SDS011;35409;48.776;9.204;2023-02-19T06:48:25;0.10;;;0.10;;
49502;SDS011;35409;48.776;9.204;2023-02-19T06:50:52;0.38;;;0.38;;
49502;SDS011;35409;48.776;9.204;2023-02-19T06:53:18;0.25;;;0.15;;
49502;SDS011;35409;48.776;9.204;2023-02-19T06:55:53;0.40;;;0.10;;
49502;SDS011;35409;48.776;9.204;2023-02-19T06:58:30;0.20;;;0.20;;
49502;SDS011;35409;48.776;9.204;2023-02-19T07:00:56;0.38;;;0.20;;
49502;SDS011;35409;48.776;9.204;2023-02-19T07:03:22;0.20;;;0.20;;
49502;SDS011;35409;48.776;9.204;2023-02-19T07:05:48;0.40;;;0.20;;
49502;SDS011;35409;48.776;9.204;2023-02-19T07:08:13;0.40;;;0.40;;
49502;SDS011;35409;48.776;9.204;2023-02-19T07:10:41;0.20;;;0.20;;
49502;SDS011;35409;48.776;9.204;2023-02-19T07:13:07;0.25;;;0.25;;
49502;SDS011;35409;48.776;9.204;2023-02-19T07:15:33;0.82;;;0.38;;
49502;SDS011;35409;48.776;9.204;2023-02-19T07:17:58;0.43;;;0.30;;
49502;SDS011;35409;48.776;9.204;2023-02-19T07:20:24;0.40;;;0.40;;
49502;SDS011;35409;48.776;9.204;2023-02-19T07:22:50;0.30;;;0.30;;
49502;SDS011;35409;48.776;9.204;2023-02-19T07:25:15;0.40;;;0.40;;
49502;SDS011;35409;48.776;9.204;2023-02-19T07:27:41;0.57;;;0.32;;
49502;SDS011;35409;48.776;9.204;2023-02-19T07:30:06;0.35;;;0.30;;
49502;SDS011;35409;48.776;9.204;2023-02-19T07:32:32;0.85;;;0.30;;
49502;SDS011;35409;48.776;9.204;2023-02-19T07:34:58;1.05;;;0.40;;
49502;SDS011;35409;48.776;9.204;2023-02-19T07:37:24;2.20;;;0.45;;
49502;SDS011;35409;48.776;9.204;2023-02-19T07:39:49;0.30;;;0.22;;
49502;SDS011;35409;48.776;9.204;2023-02-19T07:42:15;0.68;;;0.47;;
49502;SDS011;35409;48.776;9.204;2023-02-19T07:44:40;0.93;;;0.40;;
49502;SDS011;35409;48.776;9.204;2023-02-19T07:47:06;0.50;;;0.50;;
49502;SDS011;35409;48.776;9.204;2023-02-19T07:49:31;0.70;;;0.70;;
49502;SDS011;35409;48.776;9.204;2023-02-19T07:51:58;0.68;;;0.68;;
49502;SDS011;35409;48.776;9.204;2023-02-19T07:54:23;0.45;;;0.45;;
49502;SDS011;35409;48.776;9.204;2023-02-19T07:56:49;1.02;;;0.57;;
49502;SDS011;35409;48.776;9.204;2023-02-19T07:59:14;1.15;;;0.60;;
49502;SDS011;35409;48.776;9.204;2023-02-19T08:01:40;0.60;;;0.60;;
49502;SDS011;35409;48.776;9.204;2023-02-19T08:04:24;0.50;;;0.50;;
49502;SDS011;35409;48.776;9.204;2023-02-19T08:06:51;0.60;;;0.60;;
49502;SDS011;35409;48.776;9.204;2023-02-19T08:09:17;1.55;;;0.85;;
49502;SDS011;35409;48.776;9.204;2023-02-19T08:11:42;1.17;;;0.45;;
49502;SDS011;35409;48.776;9.204;2023-02-19T08:14:26;0.52;;;0.50;;
49502;SDS011;35409;48.776;9.204;2023-02-19T08:16:53;0.80;;;0.55;;
49502;SDS011;35409;48.776;9.204;2023-02-19T08:19:18;1.45;;;0.40;;
49502;SDS011;35409;48.776;9.204;2023-02-19T08:21:45;1.10;;;0.70;;
49502;SDS011;35409;48.776;9.204;2023-02-19T08:24:10;0.68;;;0.50;;
49502;SDS011;35409;48.776;9.204;2023-02-19T08:26:36;0.68;;;0.50;;
49502;SDS011;35409;48.776;9.204;2023-02-19T08:29:02;0.95;;;0.50;;
49502;SDS011;35409;48.776;9.204;2023-02-19T08:31:28;0.38;;;0.38;;
49502;SDS011;35409;48.776;9.204;2023-02-19T08:33:54;1.35;;;0.60;;
49502;SDS011;35409;48.776;9.204;2023-02-19T08:36:20;0.60;;;0.43;;
49502;SDS011;35409;48.776;9.204;2023-02-19T08:38:46;1.70;;;0.85;;
49502;SDS011;35409;48.776;9.204;2023-02-19T08:41:12;1.38;;;0.40;;
49502;SDS011;35409;48.776;9.204;2023-02-19T08:43:38;0.85;;;0.50;;
49502;SDS011;35409;48.776;9.204;2023-02-19T08:46:05;1.30;;;0.40;;
49502;SDS011;35409;48.776;9.204;2023-02-19T08:48:34;0.77;;;0.40;;
49502;SDS011;35409;48.776;9.204;2023-02-19T08:51:00;0.75;;;0.40;;
49502;SDS011;35409;48.776;9.204;2023-02-19T08:53:28;0.40;;;0.30;;
49502;SDS011;35409;48.776;9.204;2023-02-19T08:55:55;0.40;;;0.40;;
49502;SDS011;35409;48.776;9.204;2023-02-19T08:58:21;0.30;;;0.30;;
49502;SDS011;35409;48.776;9.204;2023-02-19T09:00:47;0.60;;;0.28;;
49502;SDS011;35409;48.776;9.204;2023-02-19T09:03:12;0.52;;;0.43;;
49502;SDS011;35409;48.776;9.204;2023-02-19T09:05:38;1.40;;;0.63;;
49502;SDS011;35409;48.776;9.204;2023-02-19T09:08:04;1.05;;;0.40;;
49502;SDS011;35409;48.776;9.204;2023-02-19T09:10:29;0.75;;;0.38;;
49502;SDS011;35409;48.776;9.204;2023-02-19T09:12:55;1.30;;;0.50;;
49502;SDS011;35409;48.776;9.204;2023-02-19T09:15:21;2.15;;;0.40;;
49502;SDS011;35409;48.776;9.204;2023-02-19T09:17:50;0.50;;;0.50;;
49502;SDS011;35409;48.776;9.204;2023-02-19T09:20:16;0.50;;;0.40;;
49502;SDS011;35409;48.776;9.204;2023-02-19T09:22:42;1.38;;;0.68;;
49502;SDS011;35409;48.776;9.204;2023-02-19T09:25:07;0.85;;;0.65;;
49502;SDS011;35409;48.776;9.204;2023-02-19T09:27:33;0.73;;;0.50;;
49502;SDS011;35409;48.776;9.204;2023-02-19T09:29:59;2.55;;;0.50;;
49502;SDS011;35409;48.776;9.204;2023-02-19T09:32:24;2.45;;;0.80;;
49502;SDS011;35409;48.776;9.204;2023-02-19T09:34:50;4.93;;;0.90;;
49502;SDS011;35409;48.776;9.204;2023-02-19T09:37:16;2.03;;;0.80;;
49502;SDS011;35409;48.776;9.204;2023-02-19T09:39:41;4.82;;;0.80;;
49502;SDS011;35409;48.776;9.204;2023-02-19T09:42:14;3.70;;;0.80;;
49502;SDS011;35409;48.776;9.204;2023-02-19T09:44:54;2.22;;;0.73;;
49502;SDS011;35409;48.776;9.204;2023-02-19T09:47:22;2.13;;;0.80;;
49502;SDS011;35409;48.776;9.204;2023-02-19T09:49:51;2.83;;;0.80;;
49502;SDS011;35409;48.776;9.204;2023-02-19T09:54:56;3.13;;;1.00;;
49502;SDS011;35409;48.776;9.204;2023-02-19T09:57:28;4.22;;;0.70;;
49502;SDS011;35409;48.776;9.204;2023-02-19T10:00:12;2.30;;;0.63;;
49502;SDS011;35409;48.776;9.204;2023-02-19T10:02:54;3.03;;;0.88;;
49502;SDS011;35409;48.776;9.204;2023-02-19T10:08:11;2.58;;;0.43;;
49502;SDS011;35409;48.776;9.204;2023-02-19T10:10:42;2.50;;;0.80;;
49502;SDS011;35409;48.776;9.204;2023-02-19T10:15:49;4.32;;;1.00;;
49502;SDS011;35409;48.776;9.204;2023-02-19T10:18:24;3.13;;;0.80;;
49502;SDS011;35409;48.776;9.204;2023-02-19T10:20:53;3.10;;;0.68;;
49502;SDS011;35409;48.776;9.204;2023-02-19T10:23:20;2.80;;;0.75;;
49502;SDS011;35409;48.776;9.204;2023-02-19T10:25:48;2.33;;;0.70;;
49502;SDS011;35409;48.776;9.204;2023-02-19T10:28:18;2.38;;;0.70;;
49502;SDS011;35409;48.776;9.204;2023-02-19T10:30:50;3.50;;;1.00;;
49502;SDS011;35409;48.776;9.204;2023-02-19T10:33:19;6.68;;;1.10;;
49502;SDS011;35409;48.776;9.204;2023-02-19T10:35:55;2.55;;;0.60;;
49502;SDS011;35409;48.776;9.204;2023-02-19T10:38:31;2.53;;;0.90;;
49502;SDS011;35409;48.776;9.204;2023-02-19T10:40:58;2.97;;;0.60;;
49502;SDS011;35409;48.776;9.204;2023-02-19T10:43:29;2.45;;;0.50;;
49502;SDS011;35409;48.776;9.204;2023-02-19T10:46:00;5.78;;;1.10;;
49502;SDS011;35409;48.776;9.204;2023-02-19T10:48:28;2.45;;;0.52;;
49502;SDS011;35409;48.776;9.204;2023-02-19T10:51:01;2.88;;;0.80;;
49502;SDS011;35409;48.776;9.204;2023-02-19T10:53:39;1.58;;;0.40;;
49502;SDS011;35409;48.776;9.204;2023-02-19T10:56:22;4.10;;;1.00;;
49502;SDS011;35409;48.776;9.204;2023-02-19T10:58:50;3.47;;;1.00;;
49502;SDS011;35409;48.776;9.204;2023-02-19T11:01:17;1.85;;;0.60;;
49502;SDS011;35409;48.776;9.204;2023-02-19T11:06:39;3.03;;;0.88;;
49502;SDS011;35409;48.776;9.204;2023-02-19T11:09:05;4.65;;;0.90;;
49502;SDS011;35409;48.776;9.204;2023-02-19T11:11:42;6.35;;;0.98;;
49502;SDS011;35409;48.776;9.204;2023-02-19T11:14:12;3.05;;;0.80;;
49502;SDS011;35409;48.776;9.204;2023-02-19T11:16:48;4.35;;;0.88;;
49502;SDS011;35409;48.776;9.204;2023-02-19T11:19:27;5.57;;;0.93;;
49502;SDS011;35409;48.776;9.204;2023-02-19T11:21:57;2.47;;;0.77;;
49502;SDS011;35409;48.776;9.204;2023-02-19T11:24:26;2.45;;;1.17;;
49502;SDS011;35409;48.776;9.204;2023-02-19T11:27:06;3.45;;;1.38;;
49502;SDS011;35409;48.776;9.204;2023-02-19T11:29:40;3.25;;;0.85;;
49502;SDS011;35409;48.776;9.204;2023-02-19T11:35:14;3.22;;;0.95;;
49502;SDS011;35409;48.776;9.204;2023-02-19T11:37:52;3.90;;;1.05;;
49502;SDS011;35409;48.776;9.204;2023-02-19T11:40:20;3.88;;;1.00;;
49502;SDS011;35409;48.776;9.204;2023-02-19T11:42:56;5.13;;;1.20;;
49502;SDS011;35409;48.776;9.204;2023-02-19T11:46:00;1.15;;;0.60;;
49502;SDS011;35409;48.776;9.204;2023-02-19T11:48:44;4.10;;;0.90;;
49502;SDS011;35409;48.776;9.204;2023-02-19T11:51:26;2.17;;;0.57;;
49502;SDS011;35409;48.776;9.204;2023-02-19T11:53:59;2.45;;;0.80;;
49502;SDS011;35409;48.776;9.204;2023-02-19T12:11:43;2.78;;;0.77;;
49502;SDS011;35409;48.776;9.204;2023-02-19T12:22:49;2.70;;;0.60;;
49502;SDS011;35409;48.776;9.204;2023-02-19T12:25:38;4.38;;;0.80;;
49502;SDS011;35409;48.776;9.204;2023-02-19T12:34:13;3.80;;;0.60;;
49502;SDS011;35409;48.776;9.204;2023-02-19T12:36:58;2.13;;;0.77;;
49502;SDS011;35409;48.776;9.204;2023-02-19T12:39:44;5.47;;;1.00;;
49502;SDS011;35409;48.776;9.204;2023-02-19T12:45:16;3.50;;;1.10;;
49502;SDS011;35409;48.776;9.204;2023-02-19T12:47:53;1.95;;;0.73;;
49502;SDS011;35409;48.776;9.204;2023-02-19T12:50:24;3.97;;;1.23;;
49502;SDS011;35409;48.776;9.204;2023-02-19T12:52:53;4.45;;;1.17;;
49502;SDS011;35409;48.776;9.204;2023-02-19T12:55:29;3.90;;;0.90;;
49502;SDS011;35409;48.776;9.204;2023-02-19T12:58:03;2.55;;;1.00;;
49502;SDS011;35409;48.776;9.204;2023-02-19T13:00:37;4.07;;;0.93;;
49502;SDS011;35409;48.776;9.204;2023-02-19T13:06:42;3.30;;;1.08;;
49502;SDS011;35409;48.776;9.204;2023-02-19T13:09:25;2.50;;;0.73;;
49502;SDS011;35409;48.776;9.204;2023-02-19T13:12:04;1.08;;;0.60;;
49502;SDS011;35409;48.776;9.204;2023-02-19T13:14:40;6.53;;;0.95;;
49502;SDS011;35409;48.776;9.204;2023-02-19T13:20:01;4.10;;;0.77;;
49502;SDS011;35409;48.776;9.204;2023-02-19T13:37:04;2.97;;;0.70;;
49502;SDS011;35409;48.776;9.204;2023-02-19T13:39:30;2.67;;;0.77;;
49502;SDS011;35409;48.776;9.204;2023-02-19T13:41:56;3.55;;;0.88;;
49502;SDS011;35409;48.776;9.204;2023-02-19T13:44:29;2.83;;;0.70;;
49502;SDS011;35409;48.776;9.204;2023-02-19T13:46:57;3.15;;;0.73;;
49502;SDS011;35409;48.776;9.204;2023-02-19T13:54:20;4.40;;;1.15;;
49502;SDS011;35409;48.776;9.204;2023-02-19T13:59:34;3.30;;;0.70;;
49502;SDS011;35409;48.776;9.204;2023-02-19T14:14:37;3.25;;;1.00;;
49502;SDS011;35409;48.776;9.204;2023-02-19T14:27:42;3.15;;;0.82;;
49502;SDS011;35409;48.776;9.204;2023-02-19T14:30:09;4.00;;;0.90;;
49502;SDS011;35409;48.776;9.204;2023-02-19T14:32:38;2.38;;;1.05;;
49502;SDS011;35409;48.776;9.204;2023-02-19T14:35:05;2.67;;;0.70;;
49502;SDS011;35409;48.776;9.204;2023-02-19T14:37:30;2.85;;;1.13;;
49502;SDS011;35409;48.776;9.204;2023-02-19T14:39:57;3.15;;;1.13;;
49502;SDS011;35409;48.776;9.204;2023-02-19T14:42:23;6.63;;;1.10;;
49502;SDS011;35409;48.776;9.204;2023-02-19T14:44:56;5.38;;;0.98;;
49502;SDS011;35409;48.776;9.204;2023-02-19T14:47:26;4.97;;;1.07;;
49502;SDS011;35409;48.776;9.204;2023-02-19T14:50:02;7.00;;;1.30;;
49502;SDS011;35409;48.776;9.204;2023-02-19T14:52:36;3.78;;;1.02;;
49502;SDS011;35409;48.776;9.204;2023-02-19T14:57:46;3.83;;;0.90;;
49502;SDS011;35409;48.776;9.204;2023-02-19T15:00:21;4.95;;;0.82;;
49502;SDS011;35409;48.776;9.204;2023-02-19T15:02:55;3.55;;;1.08;;
49502;SDS011;35409;48.776;9.204;2023-02-19T15:05:28;5.25;;;0.90;;
49502;SDS011;35409;48.776;9.204;2023-02-19T15:07:57;2.80;;;1.13;;
49502;SDS011;35409;48.776;9.204;2023-02-19T15:10:29;4.90;;;1.10;;
49502;SDS011;35409;48.776;9.204;2023-02-19T15:12:56;5.70;;;1.20;;
49502;SDS011;35409;48.776;9.204;2023-02-19T15:15:28;2.75;;;1.00;;
49502;SDS011;35409;48.776;9.204;2023-02-19T15:17:56;3.45;;;0.60;;
49502;SDS011;35409;48.776;9.204;2023-02-19T15:20:25;2.28;;;0.93;;
49502;SDS011;35409;48.776;9.204;2023-02-19T15:22:57;3.80;;;1.10;;
49502;SDS011;35409;48.776;9.204;2023-02-19T15:25:26;4.20;;;1.00;;
49502;SDS011;35409;48.776;9.204;2023-02-19T15:30:44;14.90;;;9.05;;
49502;SDS011;35409;48.776;9.204;2023-02-19T15:33:12;1.92;;;0.82;;
49502;SDS011;35409;48.776;9.204;2023-02-19T15:35:41;2.80;;;1.20;;
49502;SDS011;35409;48.776;9.204;2023-02-19T15:38:13;2.05;;;0.90;;
49502;SDS011;35409;48.776;9.204;2023-02-19T15:40:39;4.05;;;1.30;;
49502;SDS011;35409;48.776;9.204;2023-02-19T15:43:14;5.13;;;1.20;;
49502;SDS011;35409;48.776;9.204;2023-02-19T15:45:52;3.50;;;1.05;;
49502;SDS011;35409;48.776;9.204;2023-02-19T15:49:30;4.15;;;1.58;;
49502;SDS011;35409;48.776;9.204;2023-02-19T15:51:49;3.40;;;1.17;;
49502;SDS011;35409;48.776;9.204;2023-02-19T15:56:57;5.85;;;0.95;;
49502;SDS011;35409;48.776;9.204;2023-02-19T15:59:33;4.45;;;1.10;;
49502;SDS011;35409;48.776;9.204;2023-02-19T16:02:12;5.50;;;0.98;;
49502;SDS011;35409;48.776;9.204;2023-02-19T16:04:42;3.40;;;0.85;;
49502;SDS011;35409;48.776;9.204;2023-02-19T16:07:27;3.92;;;0.90;;
49502;SDS011;35409;48.776;9.204;2023-02-19T16:10:06;3.22;;;1.08;;
49502;SDS011;35409;48.776;9.204;2023-02-19T16:12:40;3.35;;;1.00;;
49502;SDS011;35409;48.776;9.204;2023-02-19T16:15:13;5.32;;;1.35;;
49502;SDS011;35409;48.776;9.204;2023-02-19T16:17:41;4.63;;;1.30;;
49502;SDS011;35409;48.776;9.204;2023-02-19T16:20:15;4.30;;;1.23;;
49502;SDS011;35409;48.776;9.204;2023-02-19T16:22:44;4.28;;;1.33;;
49502;SDS011;35409;48.776;9.204;2023-02-19T16:25:20;3.85;;;1.80;;
49502;SDS011;35409;48.776;9.204;2023-02-19T16:32:42;7.88;;;1.33;;
49502;SDS011;35409;48.776;9.204;2023-02-19T16:38:00;4.53;;;1.40;;
49502;SDS011;35409;48.776;9.204;2023-02-19T16:45:45;4.28;;;1.52;;
49502;SDS011;35409;48.776;9.204;2023-02-19T16:48:11;6.70;;;1.42;;
49502;SDS011;35409;48.776;9.204;2023-02-19T16:50:38;3.30;;;1.08;;
49502;SDS011;35409;48.776;9.204;2023-02-19T16:53:05;7.25;;;1.58;;
49502;SDS011;35409;48.776;9.204;2023-02-19T16:55:31;5.68;;;1.58;;
49502;SDS011;35409;48.776;9.204;2023-02-19T16:57:58;5.60;;;2.10;;
49502;SDS011;35409;48.776;9.204;2023-02-19T17:00:25;8.85;;;2.80;;
49502;SDS011;35409;48.776;9.204;2023-02-19T17:02:56;5.50;;;1.92;;
49502;SDS011;35409;48.776;9.204;2023-02-19T17:05:24;3.87;;;1.63;;
49502;SDS011;35409;48.776;9.204;2023-02-19T17:07:51;2.05;;;1.15;;
49502;SDS011;35409;48.776;9.204;2023-02-19T17:10:18;5.20;;;1.30;;
49502;SDS011;35409;48.776;9.204;2023-02-19T17:12:46;4.07;;;1.30;;
49502;SDS011;35409;48.776;9.204;2023-02-19T17:15:12;2.70;;;1.48;;
49502;SDS011;35409;48.776;9.204;2023-02-19T17:17:38;5.05;;;1.30;;
49502;SDS011;35409;48.776;9.204;2023-02-19T17:22:47;3.60;;;1.50;;
49502;SDS011;35409;48.776;9.204;2023-02-19T17:25:13;4.82;;;2.00;;
49502;SDS011;35409;48.776;9.204;2023-02-19T17:27:39;6.80;;;1.60;;
49502;SDS011;35409;48.776;9.204;2023-02-19T17:30:09;2.90;;;1.38;;
49502;SDS011;35409;48.776;9.204;2023-02-19T17:32:49;6.45;;;1.90;;
49502;SDS011;35409;48.776;9.204;2023-02-19T17:35:14;4.57;;;1.77;;
49502;SDS011;35409;48.776;9.204;2023-02-19T17:37:40;7.22;;;2.00;;
49502;SDS011;35409;48.776;9.204;2023-02-19T17:40:25;4.15;;;1.52;;
49502;SDS011;35409;48.776;9.204;2023-02-19T17:42:52;4.22;;;1.70;;
49502;SDS011;35409;48.776;9.204;2023-02-19T17:45:18;4.60;;;1.60;;
49502;SDS011;35409;48.776;9.204;2023-02-19T17:47:43;9.57;;;2.03;;
49502;SDS011;35409;48.776;9.204;2023-02-19T17:50:16;8.55;;;1.88;;
49502;SDS011;35409;48.776;9.204;2023-02-19T17:52:45;11.35;;;2.45;;